sensor_id;sensor_type;location;lat;lon;timestamp;temperature;humidity
55026;DHT22;40925;45.666;18.994;2023-04-24T00:01:30;358.90;2329.60
55026;DHT22;40925;45.666;18.994;2023-04-24T00:03:57;358.90;2329.60
55026;DHT22;40925;45.666;18.994;2023-04-24T00:06:25;358.80;2329.60
55026;DHT22;40925;45.666;18.994;2023-04-24T00:08:59;358.70;2329.60
55026;DHT22;40925;45.666;18.994;2023-04-24T00:11:26;358.70;2329.60
55026;DHT22;40925;45.666;18.994;2023-04-24T00:13:51;358.70;2329.60
55026;DHT22;40925;45.666;18.994;2023-04-24T00:16:17;358.70;2329.60
55026;DHT22;40925;45.666;18.994;2023-04-24T00:18:43;358.70;2329.60
55026;DHT22;40925;45.666;18.994;2023-04-24T00:21:10;358.70;2329.60
55026;DHT22;40925;45.666;18.994;2023-04-24T00:23:36;358.60;2329.60
55026;DHT22;40925;45.666;18.994;2023-04-24T00:26:02;358.60;2329.60
55026;DHT22;40925;45.666;18.994;2023-04-24T00:28:28;358.60;2329.60
55026;DHT22;40925;45.666;18.994;2023-04-24T00:30:53;358.40;2329.60
55026;DHT22;40925;45.666;18.994;2023-04-24T00:33:20;358.40;2329.60
55026;DHT22;40925;45.666;18.994;2023-04-24T00:35:45;333.50;2329.60
55026;DHT22;40925;45.666;18.994;2023-04-24T00:38:11;333.30;2329.60
55026;DHT22;40925;45.666;18.994;2023-04-24T00:40:37;333.10;2329.60
55026;DHT22;40925;45.666;18.994;2023-04-24T00:43:03;333.10;2329.60
55026;DHT22;40925;45.666;18.994;2023-04-24T00:45:29;333.00;2329.60
55026;DHT22;40925;45.666;18.994;2023-04-24T00:47:57;333.10;2329.60
55026;DHT22;40925;45.666;18.994;2023-04-24T00:50:23;333.10;2329.60
55026;DHT22;40925;45.666;18.994;2023-04-24T00:52:49;333.00;2329.60
55026;DHT22;40925;45.666;18.994;2023-04-24T00:55:15;333.00;2329.60
55026;DHT22;40925;45.666;18.994;2023-04-24T00:57:41;333.00;2329.60
55026;DHT22;40925;45.666;18.994;2023-04-24T01:20:01;333.60;2329.60
55026;DHT22;40925;45.666;18.994;2023-04-24T01:22:31;333.30;2329.60
55026;DHT22;40925;45.666;18.994;2023-04-24T01:24:57;333.50;2329.60
55026;DHT22;40925;45.666;18.994;2023-04-24T01:27:23;333.50;2329.60
55026;DHT22;40925;45.666;18.994;2023-04-24T01:29:49;333.60;2329.60
55026;DHT22;40925;45.666;18.994;2023-04-24T01:32:17;333.60;2329.60
55026;DHT22;40925;45.666;18.994;2023-04-24T01:34:44;333.60;2329.60
55026;DHT22;40925;45.666;18.994;2023-04-24T01:37:10;333.60;2329.60
55026;DHT22;40925;45.666;18.994;2023-04-24T01:39:36;333.70;2329.60
55026;DHT22;40925;45.666;18.994;2023-04-24T01:42:02;358.40;2329.60
55026;DHT22;40925;45.666;18.994;2023-04-24T03:02:43;358.40;2329.60
55026;DHT22;40925;45.666;18.994;2023-04-24T03:05:09;333.60;2329.60
55026;DHT22;40925;45.666;18.994;2023-04-24T03:07:37;333.20;2329.60
55026;DHT22;40925;45.666;18.994;2023-04-24T03:10:04;333.20;2329.60
55026;DHT22;40925;45.666;18.994;2023-04-24T03:12:31;333.20;2329.60
55026;DHT22;40925;45.666;18.994;2023-04-24T03:15:15;333.30;2329.60
55026;DHT22;40925;45.666;18.994;2023-04-24T03:17:41;333.20;2329.60
55026;DHT22;40925;45.666;18.994;2023-04-24T03:20:07;333.20;2329.60
55026;DHT22;40925;45.666;18.994;2023-04-24T03:22:36;333.20;2329.60
55026;DHT22;40925;45.666;18.994;2023-04-24T03:25:02;333.00;2329.60
55026;DHT22;40925;45.666;18.994;2023-04-24T03:27:27;333.00;2329.60
55026;DHT22;40925;45.666;18.994;2023-04-24T03:29:53;333.10;2329.60
55026;DHT22;40925;45.666;18.994;2023-04-24T03:32:23;333.00;2329.60
55026;DHT22;40925;45.666;18.994;2023-04-24T03:34:49;333.00;2329.60
55026;DHT22;40925;45.666;18.994;2023-04-24T03:37:16;333.00;2329.60
55026;DHT22;40925;45.666;18.994;2023-04-24T03:39:42;333.00;2329.60
55026;DHT22;40925;45.666;18.994;2023-04-24T03:42:08;333.00;2329.60
55026;DHT22;40925;45.666;18.994;2023-04-24T03:44:35;333.00;2329.60
55026;DHT22;40925;45.666;18.994;2023-04-24T03:47:01;333.00;2329.60
55026;DHT22;40925;45.666;18.994;2023-04-24T03:49:26;333.10;2329.60
55026;DHT22;40925;45.666;18.994;2023-04-24T03:51:52;333.10;2329.60
55026;DHT22;40925;45.666;18.994;2023-04-24T03:54:18;333.00;2329.60
55026;DHT22;40925;45.666;18.994;2023-04-24T03:56:44;333.60;2329.60
55026;DHT22;40925;45.666;18.994;2023-04-24T03:59:10;332.90;2329.60
55026;DHT22;40925;45.666;18.994;2023-04-24T04:01:36;332.90;2329.60
55026;DHT22;40925;45.666;18.994;2023-04-24T04:04:06;332.90;2329.60
55026;DHT22;40925;45.666;18.994;2023-04-24T04:06:33;332.80;2329.60
55026;DHT22;40925;45.666;18.994;2023-04-24T04:13:51;332.90;2329.60
55026;DHT22;40925;45.666;18.994;2023-04-24T04:16:17;308.00;2304.00
55026;DHT22;40925;45.666;18.994;2023-04-24T04:18:43;308.00;2304.00
55026;DHT22;40925;45.666;18.994;2023-04-24T04:21:09;307.70;2304.00
55026;DHT22;40925;45.666;18.994;2023-04-24T04:23:35;307.60;2304.00
55026;DHT22;40925;45.666;18.994;2023-04-24T04:26:01;307.70;2304.00
55026;DHT22;40925;45.666;18.994;2023-04-24T04:28:29;307.50;2304.00
55026;DHT22;40925;45.666;18.994;2023-04-24T04:30:56;307.70;2304.00
55026;DHT22;40925;45.666;18.994;2023-04-24T04:33:23;307.70;2304.00
55026;DHT22;40925;45.666;18.994;2023-04-24T04:35:50;307.70;2304.00
55026;DHT22;40925;45.666;18.994;2023-04-24T04:38:20;307.70;2304.00
55026;DHT22;40925;45.666;18.994;2023-04-24T04:40:46;307.80;2304.00
55026;DHT22;40925;45.666;18.994;2023-04-24T04:43:12;307.80;2304.00
55026;DHT22;40925;45.666;18.994;2023-04-24T04:45:39;332.80;2329.60
55026;DHT22;40925;45.666;18.994;2023-04-24T04:48:06;307.90;2304.00
55026;DHT22;40925;45.666;18.994;2023-04-24T04:50:38;308.00;2304.00
55026;DHT22;40925;45.666;18.994;2023-04-24T04:53:03;308.00;2304.00
55026;DHT22;40925;45.666;18.994;2023-04-24T04:55:29;308.00;2304.00
55026;DHT22;40925;45.666;18.994;2023-04-24T04:57:55;308.00;2304.00
55026;DHT22;40925;45.666;18.994;2023-04-24T05:00:36;308.10;2304.00
55026;DHT22;40925;45.666;18.994;2023-04-24T05:03:03;332.80;2329.60
55026;DHT22;40925;45.666;18.994;2023-04-24T05:05:29;332.80;2329.60
55026;DHT22;40925;45.666;18.994;2023-04-24T05:07:55;332.80;2329.60
55026;DHT22;40925;45.666;18.994;2023-04-24T05:10:21;332.80;2329.60
55026;DHT22;40925;45.666;18.994;2023-04-24T05:12:46;308.00;2227.20
55026;DHT22;40925;45.666;18.994;2023-04-24T05:15:12;307.80;2304.00
55026;DHT22;40925;45.666;18.994;2023-04-24T05:17:38;307.80;2304.00
55026;DHT22;40925;45.666;18.994;2023-04-24T05:20:06;307.80;2304.00
55026;DHT22;40925;45.666;18.994;2023-04-24T05:22:35;308.00;2304.00
55026;DHT22;40925;45.666;18.994;2023-04-24T05:25:01;332.80;2329.60
55026;DHT22;40925;45.666;18.994;2023-04-24T05:27:28;332.90;2329.60
55026;DHT22;40925;45.666;18.994;2023-04-24T05:37:11;333.50;1996.80
55026;DHT22;40925;45.666;18.994;2023-04-24T05:39:37;333.30;2329.60
55026;DHT22;40925;45.666;18.994;2023-04-24T05:42:03;333.60;2329.60
55026;DHT22;40925;45.666;18.994;2023-04-24T05:44:30;333.50;2329.60
55026;DHT22;40925;45.666;18.994;2023-04-24T05:46:56;333.60;2329.60
55026;DHT22;40925;45.666;18.994;2023-04-24T05:59:08;359.00;2329.60
55026;DHT22;40925;45.666;18.994;2023-04-24T06:01:34;358.80;2329.60
55026;DHT22;40925;45.666;18.994;2023-04-24T06:03:59;358.80;2329.60
55026;DHT22;40925;45.666;18.994;2023-04-24T06:06:26;358.80;2329.60
55026;DHT22;40925;45.666;18.994;2023-04-24T06:08:52;358.90;2329.60
55026;DHT22;40925;45.666;18.994;2023-04-24T06:11:18;358.90;2329.60
55026;DHT22;40925;45.666;18.994;2023-04-24T06:13:44;358.90;2329.60
55026;DHT22;40925;45.666;18.994;2023-04-24T06:24:57;384.50;2329.60
55026;DHT22;40925;45.666;18.994;2023-04-24T06:27:23;384.20;2329.60
55026;DHT22;40925;45.666;18.994;2023-04-24T06:29:48;384.30;2329.60
55026;DHT22;40925;45.666;18.994;2023-04-24T06:32:24;384.30;2329.60
55026;DHT22;40925;45.666;18.994;2023-04-24T06:34:53;384.30;2329.60
55026;DHT22;40925;45.666;18.994;2023-04-24T06:37:22;384.20;2329.60
55026;DHT22;40925;45.666;18.994;2023-04-24T06:39:48;384.20;2329.60
55026;DHT22;40925;45.666;18.994;2023-04-24T06:42:13;384.30;2329.60
55026;DHT22;40925;45.666;18.994;2023-04-24T06:44:39;384.30;2329.60
55026;DHT22;40925;45.666;18.994;2023-04-24T06:47:09;384.40;2329.60
55026;DHT22;40925;45.666;18.994;2023-04-24T06:49:36;384.40;2329.60
55026;DHT22;40925;45.666;18.994;2023-04-24T06:52:02;384.40;2329.60
55026;DHT22;40925;45.666;18.994;2023-04-24T06:54:29;384.30;2329.60
55026;DHT22;40925;45.666;18.994;2023-04-24T06:56:55;384.70;2329.60
55026;DHT22;40925;45.666;18.994;2023-04-24T06:59:25;384.00;2329.60
55026;DHT22;40925;45.666;18.994;2023-04-24T07:01:51;384.20;2329.60
55026;DHT22;40925;45.666;18.994;2023-04-24T07:04:17;384.00;2329.60
55026;DHT22;40925;45.666;18.994;2023-04-24T07:06:43;384.10;2329.60
55026;DHT22;40925;45.666;18.994;2023-04-24T07:09:09;384.10;2329.60
55026;DHT22;40925;45.666;18.994;2023-04-24T07:11:35;384.20;2329.60
55026;DHT22;40925;45.666;18.994;2023-04-24T07:14:02;384.20;2329.60
55026;DHT22;40925;45.666;18.994;2023-04-24T07:16:28;384.30;2329.60
55026;DHT22;40925;45.666;18.994;2023-04-24T07:18:53;384.40;2329.60
55026;DHT22;40925;45.666;18.994;2023-04-24T07:21:19;384.50;2329.60
55026;DHT22;40925;45.666;18.994;2023-04-24T07:23:45;384.50;2329.60
55026;DHT22;40925;45.666;18.994;2023-04-24T07:26:11;384.50;2329.60
55026;DHT22;40925;45.666;18.994;2023-04-24T07:28:36;384.50;2329.60
55026;DHT22;40925;45.666;18.994;2023-04-24T07:31:02;384.60;2329.60
55026;DHT22;40925;45.666;18.994;2023-04-24T07:33:28;384.50;2329.60
55026;DHT22;40925;45.666;18.994;2023-04-24T07:35:54;384.60;2329.60
55026;DHT22;40925;45.666;18.994;2023-04-24T07:38:19;384.60;2329.60
55026;DHT22;40925;45.666;18.994;2023-04-24T07:40:49;384.50;2329.60
55026;DHT22;40925;45.666;18.994;2023-04-24T07:43:14;384.60;2329.60
55026;DHT22;40925;45.666;18.994;2023-04-24T07:45:40;384.60;2329.60
55026;DHT22;40925;45.666;18.994;2023-04-24T07:48:06;384.60;2329.60
55026;DHT22;40925;45.666;18.994;2023-04-24T07:50:34;384.60;2329.60
55026;DHT22;40925;45.666;18.994;2023-04-24T07:53:01;384.60;2329.60
55026;DHT22;40925;45.666;18.994;2023-04-24T07:55:27;384.70;2329.60
55026;DHT22;40925;45.666;18.994;2023-04-24T07:57:52;384.60;2329.60
55026;DHT22;40925;45.666;18.994;2023-04-24T08:00:18;384.60;2329.60
55026;DHT22;40925;45.666;18.994;2023-04-24T08:02:45;384.60;2329.60
55026;DHT22;40925;45.666;18.994;2023-04-24T08:05:10;384.50;2329.60
55026;DHT22;40925;45.666;18.994;2023-04-24T08:07:36;384.40;2329.60
55026;DHT22;40925;45.666;18.994;2023-04-24T08:10:02;384.40;2329.60
55026;DHT22;40925;45.666;18.994;2023-04-24T08:12:29;384.30;2329.60
55026;DHT22;40925;45.666;18.994;2023-04-24T08:14:55;384.30;2329.60
55026;DHT22;40925;45.666;18.994;2023-04-24T08:17:20;384.20;2329.60
55026;DHT22;40925;45.666;18.994;2023-04-24T08:19:46;384.20;2329.60
55026;DHT22;40925;45.666;18.994;2023-04-24T08:22:17;384.20;2329.60
55026;DHT22;40925;45.666;18.994;2023-04-24T08:24:43;384.30;2329.60
55026;DHT22;40925;45.666;18.994;2023-04-24T08:27:09;384.30;2329.60
55026;DHT22;40925;45.666;18.994;2023-04-24T08:29:36;384.30;2329.60
55026;DHT22;40925;45.666;18.994;2023-04-24T08:32:02;384.30;2329.60
55026;DHT22;40925;45.666;18.994;2023-04-24T08:34:28;384.30;2329.60
55026;DHT22;40925;45.666;18.994;2023-04-24T08:36:53;384.30;2329.60
55026;DHT22;40925;45.666;18.994;2023-04-24T08:39:20;384.30;2329.60
55026;DHT22;40925;45.666;18.994;2023-04-24T08:41:47;384.30;2329.60
55026;DHT22;40925;45.666;18.994;2023-04-24T08:44:13;384.30;2329.60
55026;DHT22;40925;45.666;18.994;2023-04-24T08:46:42;384.30;2329.60
55026;DHT22;40925;45.666;18.994;2023-04-24T08:49:08;384.30;2329.60
55026;DHT22;40925;45.666;18.994;2023-04-24T08:51:34;384.20;2329.60
55026;DHT22;40925;45.666;18.994;2023-04-24T08:54:03;384.20;2329.60
55026;DHT22;40925;45.666;18.994;2023-04-24T08:56:30;384.20;2329.60
55026;DHT22;40925;45.666;18.994;2023-04-24T08:58:59;384.10;2329.60
55026;DHT22;40925;45.666;18.994;2023-04-24T09:01:25;384.10;2329.60
55026;DHT22;40925;45.666;18.994;2023-04-24T09:03:53;384.00;2329.60
55026;DHT22;40925;45.666;18.994;2023-04-24T09:06:19;384.00;2329.60
55026;DHT22;40925;45.666;18.994;2023-04-24T09:08:47;384.10;2329.60
55026;DHT22;40925;45.666;18.994;2023-04-24T09:11:14;384.20;2329.60
55026;DHT22;40925;45.666;18.994;2023-04-24T09:13:41;384.20;2329.60
55026;DHT22;40925;45.666;18.994;2023-04-24T09:16:07;384.20;2329.60
55026;DHT22;40925;45.666;18.994;2023-04-24T09:18:32;384.00;2329.60
55026;DHT22;40925;45.666;18.994;2023-04-24T09:23:29;384.00;2329.60
55026;DHT22;40925;45.666;18.994;2023-04-24T09:25:56;359.30;2329.60
55026;DHT22;40925;45.666;18.994;2023-04-24T09:28:31;359.30;2329.60
55026;DHT22;40925;45.666;18.994;2023-04-24T09:31:11;384.50;2329.60
55026;DHT22;40925;45.666;18.994;2023-04-24T09:33:38;384.20;2329.60
55026;DHT22;40925;45.666;18.994;2023-04-24T09:36:04;384.30;2329.60
55026;DHT22;40925;45.666;18.994;2023-04-24T09:38:36;384.40;2329.60
55026;DHT22;40925;45.666;18.994;2023-04-24T09:41:04;384.60;2329.60
55026;DHT22;40925;45.666;18.994;2023-04-24T09:43:30;384.60;2329.60
55026;DHT22;40925;45.666;18.994;2023-04-24T09:45:57;384.30;2329.60
55026;DHT22;40925;45.666;18.994;2023-04-24T09:48:31;384.60;2329.60
55026;DHT22;40925;45.666;18.994;2023-04-24T09:50:57;384.20;2329.60
55026;DHT22;40925;45.666;18.994;2023-04-24T09:53:26;384.10;2329.60
55026;DHT22;40925;45.666;18.994;2023-04-24T09:55:52;384.10;2329.60
55026;DHT22;40925;45.666;18.994;2023-04-24T09:58:25;384.20;2329.60
55026;DHT22;40925;45.666;18.994;2023-04-24T10:00:55;384.20;2329.60
55026;DHT22;40925;45.666;18.994;2023-04-24T10:03:24;384.00;2329.60
55026;DHT22;40925;45.666;18.994;2023-04-24T10:05:52;359.20;2329.60
55026;DHT22;40925;45.666;18.994;2023-04-24T10:08:18;359.20;2329.60
55026;DHT22;40925;45.666;18.994;2023-04-24T10:10:45;359.30;2329.60
55026;DHT22;40925;45.666;18.994;2023-04-24T10:13:13;384.00;2329.60
55026;DHT22;40925;45.666;18.994;2023-04-24T10:15:41;384.00;2329.60
55026;DHT22;40925;45.666;18.994;2023-04-24T10:18:08;384.10;2329.60
55026;DHT22;40925;45.666;18.994;2023-04-24T10:20:36;384.20;2329.60
55026;DHT22;40925;45.666;18.994;2023-04-24T10:23:02;384.30;2329.60
55026;DHT22;40925;45.666;18.994;2023-04-24T10:25:30;384.20;2329.60
55026;DHT22;40925;45.666;18.994;2023-04-24T10:27:57;384.30;2329.60
55026;DHT22;40925;45.666;18.994;2023-04-24T10:30:26;384.20;2329.60
55026;DHT22;40925;45.666;18.994;2023-04-24T10:32:52;384.20;2329.60
55026;DHT22;40925;45.666;18.994;2023-04-24T10:35:18;384.20;2329.60
55026;DHT22;40925;45.666;18.994;2023-04-24T10:37:56;384.10;2329.60
55026;DHT22;40925;45.666;18.994;2023-04-24T10:40:29;384.10;2329.60
55026;DHT22;40925;45.666;18.994;2023-04-24T10:42:56;384.00;2329.60
55026;DHT22;40925;45.666;18.994;2023-04-24T10:45:23;359.30;2329.60
55026;DHT22;40925;45.666;18.994;2023-04-24T10:47:58;384.10;2329.60
55026;DHT22;40925;45.666;18.994;2023-04-24T10:50:29;384.10;2329.60
55026;DHT22;40925;45.666;18.994;2023-04-24T10:53:06;384.10;2329.60
55026;DHT22;40925;45.666;18.994;2023-04-24T10:55:51;384.30;2329.60
55026;DHT22;40925;45.666;18.994;2023-04-24T10:58:22;384.30;2329.60
55026;DHT22;40925;45.666;18.994;2023-04-24T11:00:59;384.60;2329.60
55026;DHT22;40925;45.666;18.994;2023-04-24T11:03:30;384.70;2329.60
55026;DHT22;40925;45.666;18.994;2023-04-24T11:06:07;384.70;2329.60
55026;DHT22;40925;45.666;18.994;2023-04-24T11:08:43;384.90;2329.60
55026;DHT22;40925;45.666;18.994;2023-04-24T11:11:11;409.60;2355.20
55026;DHT22;40925;45.666;18.994;2023-04-24T11:27:16;384.90;2329.60
55026;DHT22;40925;45.666;18.994;2023-04-24T11:29:47;384.80;2329.60
55026;DHT22;40925;45.666;18.994;2023-04-24T11:34:58;384.70;2329.60
55026;DHT22;40925;45.666;18.994;2023-04-24T11:37:28;384.80;2329.60
55026;DHT22;40925;45.666;18.994;2023-04-24T11:39:56;384.60;2329.60
55026;DHT22;40925;45.666;18.994;2023-04-24T11:42:23;384.50;2329.60
55026;DHT22;40925;45.666;18.994;2023-04-24T11:44:51;384.50;2329.60
55026;DHT22;40925;45.666;18.994;2023-04-24T11:47:17;384.60;2329.60
55026;DHT22;40925;45.666;18.994;2023-04-24T11:49:43;384.60;2329.60
55026;DHT22;40925;45.666;18.994;2023-04-24T11:52:09;384.60;2329.60
55026;DHT22;40925;45.666;18.994;2023-04-24T11:54:36;384.50;2329.60
55026;DHT22;40925;45.666;18.994;2023-04-24T11:57:04;384.50;2329.60
55026;DHT22;40925;45.666;18.994;2023-04-24T11:59:36;384.50;2329.60
55026;DHT22;40925;45.666;18.994;2023-04-24T12:02:02;384.40;2329.60
55026;DHT22;40925;45.666;18.994;2023-04-24T12:04:39;384.40;2022.40
55026;DHT22;40925;45.666;18.994;2023-04-24T12:07:05;384.50;2329.60
55026;DHT22;40925;45.666;18.994;2023-04-24T12:09:55;384.50;2329.60
55026;DHT22;40925;45.666;18.994;2023-04-24T12:12:25;384.80;2329.60
55026;DHT22;40925;45.666;18.994;2023-04-24T12:14:56;409.60;2355.20
55026;DHT22;40925;45.666;18.994;2023-04-24T12:17:30;409.90;2355.20
55026;DHT22;40925;45.666;18.994;2023-04-24T12:20:01;410.10;2176.00
55026;DHT22;40925;45.666;18.994;2023-04-24T12:22:49;409.90;2355.20
55026;DHT22;40925;45.666;18.994;2023-04-24T12:25:16;410.00;2252.80
55026;DHT22;40925;45.666;18.994;2023-04-24T12:27:50;410.00;2355.20
55026;DHT22;40925;45.666;18.994;2023-04-24T12:30:18;410.10;2355.20
55026;DHT22;40925;45.666;18.994;2023-04-24T12:32:46;410.10;2355.20
55026;DHT22;40925;45.666;18.994;2023-04-24T12:35:12;410.30;2355.20
55026;DHT22;40925;45.666;18.994;2023-04-24T12:37:38;410.30;2355.20
55026;DHT22;40925;45.666;18.994;2023-04-24T12:40:09;410.50;2355.20
55026;DHT22;40925;45.666;18.994;2023-04-24T12:42:41;410.40;2355.20
55026;DHT22;40925;45.666;18.994;2023-04-24T12:45:07;410.20;2355.20
55026;DHT22;40925;45.666;18.994;2023-04-24T12:47:34;410.30;2355.20
55026;DHT22;40925;45.666;18.994;2023-04-24T12:50:01;410.40;2355.20
55026;DHT22;40925;45.666;18.994;2023-04-24T12:52:29;410.50;2355.20
55026;DHT22;40925;45.666;18.994;2023-04-24T12:54:59;410.50;2355.20
55026;DHT22;40925;45.666;18.994;2023-04-24T12:57:27;435.20;2355.20
55026;DHT22;40925;45.666;18.994;2023-04-24T12:59:58;435.20;2355.20
55026;DHT22;40925;45.666;18.994;2023-04-24T13:02:28;435.20;2355.20
55026;DHT22;40925;45.666;18.994;2023-04-24T13:04:58;435.30;2355.20
55026;DHT22;40925;45.666;18.994;2023-04-24T13:07:24;410.50;2355.20
55026;DHT22;40925;45.666;18.994;2023-04-24T13:09:51;435.20;2355.20
55026;DHT22;40925;45.666;18.994;2023-04-24T13:12:17;435.40;2355.20
55026;DHT22;40925;45.666;18.994;2023-04-24T13:14:43;435.50;2355.20
55026;DHT22;40925;45.666;18.994;2023-04-24T13:17:09;410.50;2355.20
55026;DHT22;40925;45.666;18.994;2023-04-24T13:19:38;435.20;2355.20
55026;DHT22;40925;45.666;18.994;2023-04-24T13:22:04;410.50;2355.20
55026;DHT22;40925;45.666;18.994;2023-04-24T13:24:30;435.20;2355.20
55026;DHT22;40925;45.666;18.994;2023-04-24T13:26:56;435.20;2355.20
55026;DHT22;40925;45.666;18.994;2023-04-24T13:29:23;435.20;2355.20
55026;DHT22;40925;45.666;18.994;2023-04-24T13:31:52;410.50;2355.20
55026;DHT22;40925;45.666;18.994;2023-04-24T13:34:20;410.50;2355.20
55026;DHT22;40925;45.666;18.994;2023-04-24T13:36:46;435.20;2355.20
55026;DHT22;40925;45.666;18.994;2023-04-24T13:39:12;435.30;2355.20
55026;DHT22;40925;45.666;18.994;2023-04-24T13:41:38;435.40;2355.20
55026;DHT22;40925;45.666;18.994;2023-04-24T13:44:06;435.40;2355.20
55026;DHT22;40925;45.666;18.994;2023-04-24T13:46:32;435.30;2355.20
55026;DHT22;40925;45.666;18.994;2023-04-24T13:48:58;435.40;2355.20
55026;DHT22;40925;45.666;18.994;2023-04-24T13:51:25;435.50;2355.20
55026;DHT22;40925;45.666;18.994;2023-04-24T13:53:54;435.50;2355.20
55026;DHT22;40925;45.666;18.994;2023-04-24T13:56:21;435.40;2355.20
55026;DHT22;40925;45.666;18.994;2023-04-24T13:58:47;435.40;2355.20
55026;DHT22;40925;45.666;18.994;2023-04-24T14:01:14;435.30;2355.20
55026;DHT22;40925;45.666;18.994;2023-04-24T14:03:41;435.50;2355.20
55026;DHT22;40925;45.666;18.994;2023-04-24T14:06:07;435.40;2355.20
55026;DHT22;40925;45.666;18.994;2023-04-24T14:08:33;435.40;2355.20
55026;DHT22;40925;45.666;18.994;2023-04-24T14:10:59;435.30;2355.20
55026;DHT22;40925;45.666;18.994;2023-04-24T14:13:25;435.30;2355.20
55026;DHT22;40925;45.666;18.994;2023-04-24T14:15:51;435.30;2355.20
55026;DHT22;40925;45.666;18.994;2023-04-24T14:18:18;435.30;2355.20
55026;DHT22;40925;45.666;18.994;2023-04-24T14:20:44;435.40;2355.20
55026;DHT22;40925;45.666;18.994;2023-04-24T14:23:10;435.50;2355.20
55026;DHT22;40925;45.666;18.994;2023-04-24T14:25:36;435.50;2355.20
55026;DHT22;40925;45.666;18.994;2023-04-24T14:28:02;435.50;2355.20
55026;DHT22;40925;45.666;18.994;2023-04-24T14:30:27;435.60;2355.20
55026;DHT22;40925;45.666;18.994;2023-04-24T14:32:53;435.40;2355.20
55026;DHT22;40925;45.666;18.994;2023-04-24T14:35:19;435.50;2355.20
55026;DHT22;40925;45.666;18.994;2023-04-24T14:37:45;435.40;2355.20
55026;DHT22;40925;45.666;18.994;2023-04-24T14:40:11;435.40;2355.20
55026;DHT22;40925;45.666;18.994;2023-04-24T14:42:36;435.50;2355.20
55026;DHT22;40925;45.666;18.994;2023-04-24T14:45:02;435.40;2355.20
55026;DHT22;40925;45.666;18.994;2023-04-24T14:47:28;435.50;2355.20
55026;DHT22;40925;45.666;18.994;2023-04-24T14:49:54;435.50;2355.20
55026;DHT22;40925;45.666;18.994;2023-04-24T14:52:20;435.50;2355.20
55026;DHT22;40925;45.666;18.994;2023-04-24T14:54:46;435.40;2355.20
55026;DHT22;40925;45.666;18.994;2023-04-24T14:57:12;435.40;2355.20
55026;DHT22;40925;45.666;18.994;2023-04-24T14:59:39;435.40;2355.20
55026;DHT22;40925;45.666;18.994;2023-04-24T15:02:06;435.40;2355.20
55026;DHT22;40925;45.666;18.994;2023-04-24T15:04:32;435.30;2355.20
55026;DHT22;40925;45.666;18.994;2023-04-24T15:06:57;435.40;2355.20
55026;DHT22;40925;45.666;18.994;2023-04-24T15:09:24;435.20;2355.20
55026;DHT22;40925;45.666;18.994;2023-04-24T15:11:50;435.40;2355.20
55026;DHT22;40925;45.666;18.994;2023-04-24T15:14:17;435.30;2355.20
55026;DHT22;40925;45.666;18.994;2023-04-24T15:16:43;435.90;2355.20
55026;DHT22;40925;45.666;18.994;2023-04-24T15:19:10;435.30;2355.20
55026;DHT22;40925;45.666;18.994;2023-04-24T15:21:36;435.30;2355.20
55026;DHT22;40925;45.666;18.994;2023-04-24T15:24:06;435.20;2355.20
55026;DHT22;40925;45.666;18.994;2023-04-24T15:26:31;435.30;2355.20
55026;DHT22;40925;45.666;18.994;2023-04-24T15:28:57;435.30;2355.20
55026;DHT22;40925;45.666;18.994;2023-04-24T15:31:23;435.20;2355.20
55026;DHT22;40925;45.666;18.994;2023-04-24T15:33:49;435.30;2355.20
55026;DHT22;40925;45.666;18.994;2023-04-24T15:36:16;435.30;2355.20
55026;DHT22;40925;45.666;18.994;2023-04-24T15:38:45;435.30;2355.20
55026;DHT22;40925;45.666;18.994;2023-04-24T15:41:11;435.30;2355.20
55026;DHT22;40925;45.666;18.994;2023-04-24T15:43:37;435.40;2355.20
55026;DHT22;40925;45.666;18.994;2023-04-24T15:46:04;435.40;2355.20
55026;DHT22;40925;45.666;18.994;2023-04-24T15:48:31;435.40;2355.20
55026;DHT22;40925;45.666;18.994;2023-04-24T15:50:57;435.40;2355.20
55026;DHT22;40925;45.666;18.994;2023-04-24T15:53:24;435.30;2355.20
55026;DHT22;40925;45.666;18.994;2023-04-24T15:55:51;435.40;2355.20
55026;DHT22;40925;45.666;18.994;2023-04-24T15:58:18;435.50;2355.20
55026;DHT22;40925;45.666;18.994;2023-04-24T16:00:44;435.50;2355.20
55026;DHT22;40925;45.666;18.994;2023-04-24T16:03:11;435.50;2355.20
55026;DHT22;40925;45.666;18.994;2023-04-24T16:05:37;435.60;2355.20
55026;DHT22;40925;45.666;18.994;2023-04-24T16:08:03;435.70;2355.20
55026;DHT22;40925;45.666;18.994;2023-04-24T16:10:28;435.80;2355.20
55026;DHT22;40925;45.666;18.994;2023-04-24T16:12:54;435.70;2355.20
55026;DHT22;40925;45.666;18.994;2023-04-24T16:15:21;435.60;2355.20
55026;DHT22;40925;45.666;18.994;2023-04-24T16:17:47;435.50;2355.20
55026;DHT22;40925;45.666;18.994;2023-04-24T16:20:14;435.50;2355.20
55026;DHT22;40925;45.666;18.994;2023-04-24T16:22:40;435.50;2355.20
55026;DHT22;40925;45.666;18.994;2023-04-24T16:25:06;435.50;2355.20
55026;DHT22;40925;45.666;18.994;2023-04-24T16:27:33;435.40;2355.20
55026;DHT22;40925;45.666;18.994;2023-04-24T16:29:59;435.40;2355.20
55026;DHT22;40925;45.666;18.994;2023-04-24T16:32:25;435.30;2355.20
55026;DHT22;40925;45.666;18.994;2023-04-24T16:34:51;435.30;2355.20
55026;DHT22;40925;45.666;18.994;2023-04-24T16:37:17;410.50;2355.20
55026;DHT22;40925;45.666;18.994;2023-04-24T16:39:43;410.50;2355.20
55026;DHT22;40925;45.666;18.994;2023-04-24T16:42:13;410.30;2355.20
55026;DHT22;40925;45.666;18.994;2023-04-24T16:44:40;410.20;2355.20
55026;DHT22;40925;45.666;18.994;2023-04-24T16:47:10;410.20;2355.20
55026;DHT22;40925;45.666;18.994;2023-04-24T16:49:38;410.10;2355.20
55026;DHT22;40925;45.666;18.994;2023-04-24T16:52:04;410.20;2355.20
55026;DHT22;40925;45.666;18.994;2023-04-24T16:54:30;410.10;2355.20
55026;DHT22;40925;45.666;18.994;2023-04-24T16:56:59;410.10;2355.20
55026;DHT22;40925;45.666;18.994;2023-04-24T16:59:24;410.00;2355.20
55026;DHT22;40925;45.666;18.994;2023-04-24T17:01:50;410.00;2355.20
55026;DHT22;40925;45.666;18.994;2023-04-24T17:04:16;410.00;2355.20